sensor_id;sensor_type;location;lat;lon;timestamp;temperature;humidity
53146;DHT22;39042;53.150;5.898;2023-03-24T00:01:10;11.50;99.90
53146;DHT22;39042;53.150;5.898;2023-03-24T00:03:36;11.50;99.90
53146;DHT22;39042;53.150;5.898;2023-03-24T00:06:04;11.50;99.90
53146;DHT22;39042;53.150;5.898;2023-03-24T00:08:33;11.50;99.90
53146;DHT22;39042;53.150;5.898;2023-03-24T00:11:03;11.50;99.90
53146;DHT22;39042;53.150;5.898;2023-03-24T00:13:31;11.50;99.90
53146;DHT22;39042;53.150;5.898;2023-03-24T00:16:12;11.50;99.90
53146;DHT22;39042;53.150;5.898;2023-03-24T00:18:39;11.50;99.90
53146;DHT22;39042;53.150;5.898;2023-03-24T00:21:06;11.50;99.90
53146;DHT22;39042;53.150;5.898;2023-03-24T00:23:33;11.50;99.90
53146;DHT22;39042;53.150;5.898;2023-03-24T00:28:31;11.50;99.90
53146;DHT22;39042;53.150;5.898;2023-03-24T00:30:59;11.50;99.90
53146;DHT22;39042;53.150;5.898;2023-03-24T00:33:28;11.50;99.90
53146;DHT22;39042;53.150;5.898;2023-03-24T00:35:56;11.50;99.90
53146;DHT22;39042;53.150;5.898;2023-03-24T00:38:22;11.50;99.90
53146;DHT22;39042;53.150;5.898;2023-03-24T00:40:48;11.50;99.90
53146;DHT22;39042;53.150;5.898;2023-03-24T00:43:15;11.40;99.90
53146;DHT22;39042;53.150;5.898;2023-03-24T00:45:41;11.40;99.90
53146;DHT22;39042;53.150;5.898;2023-03-24T00:48:15;11.40;99.90
53146;DHT22;39042;53.150;5.898;2023-03-24T00:50:50;11.40;99.90
53146;DHT22;39042;53.150;5.898;2023-03-24T00:53:17;11.40;99.90
53146;DHT22;39042;53.150;5.898;2023-03-24T00:55:45;11.40;99.90
53146;DHT22;39042;53.150;5.898;2023-03-24T00:58:13;11.40;99.90
53146;DHT22;39042;53.150;5.898;2023-03-24T01:00:51;11.40;99.90
53146;DHT22;39042;53.150;5.898;2023-03-24T01:03:18;11.40;99.90
53146;DHT22;39042;53.150;5.898;2023-03-24T01:05:48;11.40;99.90
53146;DHT22;39042;53.150;5.898;2023-03-24T01:08:15;11.40;99.90
53146;DHT22;39042;53.150;5.898;2023-03-24T01:10:47;11.40;99.90
53146;DHT22;39042;53.150;5.898;2023-03-24T01:13:26;11.40;99.90
53146;DHT22;39042;53.150;5.898;2023-03-24T01:15:54;11.40;99.90
53146;DHT22;39042;53.150;5.898;2023-03-24T01:18:20;11.40;99.90
53146;DHT22;39042;53.150;5.898;2023-03-24T01:20:48;11.40;99.90
53146;DHT22;39042;53.150;5.898;2023-03-24T01:23:20;11.40;99.90
53146;DHT22;39042;53.150;5.898;2023-03-24T01:25:46;11.40;99.90
53146;DHT22;39042;53.150;5.898;2023-03-24T01:28:13;11.40;99.90
53146;DHT22;39042;53.150;5.898;2023-03-24T01:30:40;11.40;99.90
53146;DHT22;39042;53.150;5.898;2023-03-24T01:33:06;11.40;99.90
53146;DHT22;39042;53.150;5.898;2023-03-24T01:35:33;11.40;99.90
53146;DHT22;39042;53.150;5.898;2023-03-24T01:37:58;11.40;99.90
53146;DHT22;39042;53.150;5.898;2023-03-24T01:40:28;11.40;99.90
53146;DHT22;39042;53.150;5.898;2023-03-24T01:42:54;11.50;99.90
53146;DHT22;39042;53.150;5.898;2023-03-24T01:48:30;11.50;99.90
53146;DHT22;39042;53.150;5.898;2023-03-24T01:53:31;11.50;99.90
53146;DHT22;39042;53.150;5.898;2023-03-24T01:55:59;11.40;99.90
53146;DHT22;39042;53.150;5.898;2023-03-24T01:58:31;11.50;99.90
53146;DHT22;39042;53.150;5.898;2023-03-24T02:01:14;11.50;99.90
53146;DHT22;39042;53.150;5.898;2023-03-24T02:04:05;11.50;99.90
53146;DHT22;39042;53.150;5.898;2023-03-24T02:06:36;11.50;99.90
53146;DHT22;39042;53.150;5.898;2023-03-24T02:09:07;11.50;99.90
53146;DHT22;39042;53.150;5.898;2023-03-24T02:11:35;11.50;99.90
53146;DHT22;39042;53.150;5.898;2023-03-24T02:14:04;11.60;99.90
53146;DHT22;39042;53.150;5.898;2023-03-24T02:16:36;11.60;99.90
53146;DHT22;39042;53.150;5.898;2023-03-24T02:28:04;11.60;99.90
53146;DHT22;39042;53.150;5.898;2023-03-24T02:30:56;11.60;99.90
53146;DHT22;39042;53.150;5.898;2023-03-24T02:38:56;11.60;99.90
53146;DHT22;39042;53.150;5.898;2023-03-24T02:41:32;11.60;99.90
53146;DHT22;39042;53.150;5.898;2023-03-24T02:44:09;11.70;99.90
53146;DHT22;39042;53.150;5.898;2023-03-24T02:46:44;11.70;99.90
53146;DHT22;39042;53.150;5.898;2023-03-24T02:49:27;11.70;99.90
53146;DHT22;39042;53.150;5.898;2023-03-24T02:57:42;11.60;99.90
53146;DHT22;39042;53.150;5.898;2023-03-24T03:00:41;11.50;99.90
53146;DHT22;39042;53.150;5.898;2023-03-24T03:03:41;11.60;99.90
53146;DHT22;39042;53.150;5.898;2023-03-24T03:06:20;11.50;99.90
53146;DHT22;39042;53.150;5.898;2023-03-24T03:08:56;11.40;99.90
53146;DHT22;39042;53.150;5.898;2023-03-24T03:11:23;11.40;99.90
53146;DHT22;39042;53.150;5.898;2023-03-24T03:47:21;10.70;99.90
53146;DHT22;39042;53.150;5.898;2023-03-24T03:49:49;10.60;99.90
53146;DHT22;39042;53.150;5.898;2023-03-24T03:52:15;10.60;99.90
53146;DHT22;39042;53.150;5.898;2023-03-24T03:54:42;10.50;99.90
53146;DHT22;39042;53.150;5.898;2023-03-24T03:57:11;10.50;99.90
53146;DHT22;39042;53.150;5.898;2023-03-24T03:59:50;10.50;99.90
53146;DHT22;39042;53.150;5.898;2023-03-24T15:09:47;13.20;99.90
53146;DHT22;39042;53.150;5.898;2023-03-24T15:12:13;13.10;99.90
53146;DHT22;39042;53.150;5.898;2023-03-24T15:14:39;13.10;99.90
53146;DHT22;39042;53.150;5.898;2023-03-24T15:17:18;13.00;99.90
53146;DHT22;39042;53.150;5.898;2023-03-24T15:19:52;13.00;99.90
53146;DHT22;39042;53.150;5.898;2023-03-24T15:22:18;13.00;99.90
53146;DHT22;39042;53.150;5.898;2023-03-24T15:24:49;13.00;99.90
53146;DHT22;39042;53.150;5.898;2023-03-24T15:29:42;12.90;99.90
53146;DHT22;39042;53.150;5.898;2023-03-24T15:32:17;12.90;99.90
53146;DHT22;39042;53.150;5.898;2023-03-24T15:34:53;12.90;99.90
53146;DHT22;39042;53.150;5.898;2023-03-24T15:37:32;12.80;99.90
53146;DHT22;39042;53.150;5.898;2023-03-24T15:39:59;12.80;99.90
53146;DHT22;39042;53.150;5.898;2023-03-24T15:42:25;12.80;99.90
53146;DHT22;39042;53.150;5.898;2023-03-24T15:44:52;12.80;99.90
53146;DHT22;39042;53.150;5.898;2023-03-24T15:47:24;12.80;99.90
53146;DHT22;39042;53.150;5.898;2023-03-24T15:49:56;12.80;99.90
53146;DHT22;39042;53.150;5.898;2023-03-24T15:52:34;12.80;99.90
53146;DHT22;39042;53.150;5.898;2023-03-24T15:55:27;12.70;99.90
53146;DHT22;39042;53.150;5.898;2023-03-24T15:57:59;12.70;99.90
53146;DHT22;39042;53.150;5.898;2023-03-24T16:00:38;12.60;99.90
53146;DHT22;39042;53.150;5.898;2023-03-24T16:03:05;12.50;99.90
53146;DHT22;39042;53.150;5.898;2023-03-24T16:05:32;12.50;99.90
53146;DHT22;39042;53.150;5.898;2023-03-24T16:08:04;12.50;99.90
53146;DHT22;39042;53.150;5.898;2023-03-24T16:10:37;12.40;99.90
53146;DHT22;39042;53.150;5.898;2023-03-24T16:13:17;12.40;99.90
53146;DHT22;39042;53.150;5.898;2023-03-24T16:15:54;12.40;99.90
53146;DHT22;39042;53.150;5.898;2023-03-24T16:18:35;12.30;99.90
53146;DHT22;39042;53.150;5.898;2023-03-24T16:21:07;12.30;99.90
53146;DHT22;39042;53.150;5.898;2023-03-24T16:23:34;12.30;99.90
53146;DHT22;39042;53.150;5.898;2023-03-24T16:26:00;12.20;99.90
53146;DHT22;39042;53.150;5.898;2023-03-24T16:28:26;12.20;99.90
53146;DHT22;39042;53.150;5.898;2023-03-24T16:31:01;12.10;99.90
53146;DHT22;39042;53.150;5.898;2023-03-24T16:33:27;12.10;99.90
53146;DHT22;39042;53.150;5.898;2023-03-24T16:35:55;12.00;99.90
53146;DHT22;39042;53.150;5.898;2023-03-24T16:38:21;12.00;99.90
53146;DHT22;39042;53.150;5.898;2023-03-24T16:40:54;12.00;99.90
53146;DHT22;39042;53.150;5.898;2023-03-24T16:43:20;12.00;99.90
53146;DHT22;39042;53.150;5.898;2023-03-24T16:45:49;11.90;99.90
53146;DHT22;39042;53.150;5.898;2023-03-24T16:48:16;11.90;99.90
53146;DHT22;39042;53.150;5.898;2023-03-24T16:50:45;11.80;99.90
53146;DHT22;39042;53.150;5.898;2023-03-24T16:53:11;11.80;99.90
53146;DHT22;39042;53.150;5.898;2023-03-24T16:55:38;11.70;99.90
53146;DHT22;39042;53.150;5.898;2023-03-24T16:58:12;11.60;99.90
53146;DHT22;39042;53.150;5.898;2023-03-24T17:00:38;11.60;99.90
53146;DHT22;39042;53.150;5.898;2023-03-24T17:03:05;11.50;99.90
53146;DHT22;39042;53.150;5.898;2023-03-24T17:05:47;11.40;99.90
53146;DHT22;39042;53.150;5.898;2023-03-24T17:08:17;11.40;99.90
53146;DHT22;39042;53.150;5.898;2023-03-24T17:10:45;11.40;99.90
53146;DHT22;39042;53.150;5.898;2023-03-24T17:13:23;11.30;99.90
53146;DHT22;39042;53.150;5.898;2023-03-24T17:15:50;11.30;99.90
53146;DHT22;39042;53.150;5.898;2023-03-24T17:18:19;11.20;99.90
53146;DHT22;39042;53.150;5.898;2023-03-24T17:20:45;11.20;99.90
53146;DHT22;39042;53.150;5.898;2023-03-24T17:23:13;11.10;99.90
53146;DHT22;39042;53.150;5.898;2023-03-24T17:25:41;11.10;99.90
53146;DHT22;39042;53.150;5.898;2023-03-24T17:28:15;11.00;99.90
53146;DHT22;39042;53.150;5.898;2023-03-24T17:30:41;11.00;99.90
53146;DHT22;39042;53.150;5.898;2023-03-24T17:33:12;10.90;99.90
53146;DHT22;39042;53.150;5.898;2023-03-24T17:35:38;10.80;99.90
53146;DHT22;39042;53.150;5.898;2023-03-24T17:38:04;10.70;99.90
53146;DHT22;39042;53.150;5.898;2023-03-24T17:40:29;10.70;99.90
53146;DHT22;39042;53.150;5.898;2023-03-24T17:42:55;10.60;99.90
53146;DHT22;39042;53.150;5.898;2023-03-24T17:45:21;10.50;99.90
53146;DHT22;39042;53.150;5.898;2023-03-24T17:47:47;10.50;99.90
53146;DHT22;39042;53.150;5.898;2023-03-24T17:50:13;10.40;99.90
53146;DHT22;39042;53.150;5.898;2023-03-24T17:52:42;10.30;99.90
53146;DHT22;39042;53.150;5.898;2023-03-24T17:55:10;10.30;99.90
53146;DHT22;39042;53.150;5.898;2023-03-24T17:57:36;10.30;99.90
53146;DHT22;39042;53.150;5.898;2023-03-24T18:00:02;10.20;99.90
53146;DHT22;39042;53.150;5.898;2023-03-24T18:02:33;10.10;99.90
53146;DHT22;39042;53.150;5.898;2023-03-24T18:04:59;10.10;99.90
53146;DHT22;39042;53.150;5.898;2023-03-24T18:07:24;10.00;99.90
53146;DHT22;39042;53.150;5.898;2023-03-24T18:09:50;10.00;99.90
53146;DHT22;39042;53.150;5.898;2023-03-24T18:12:19;10.00;99.90
53146;DHT22;39042;53.150;5.898;2023-03-24T18:14:45;9.90;99.90
53146;DHT22;39042;53.150;5.898;2023-03-24T18:17:11;9.90;99.90
53146;DHT22;39042;53.150;5.898;2023-03-24T18:19:37;9.90;99.90
53146;DHT22;39042;53.150;5.898;2023-03-24T18:22:03;9.80;99.90
53146;DHT22;39042;53.150;5.898;2023-03-24T18:24:29;9.80;99.90
53146;DHT22;39042;53.150;5.898;2023-03-24T18:26:55;9.80;99.90
53146;DHT22;39042;53.150;5.898;2023-03-24T18:29:21;9.80;99.90
53146;DHT22;39042;53.150;5.898;2023-03-24T18:31:48;9.80;99.90
53146;DHT22;39042;53.150;5.898;2023-03-24T18:34:15;9.70;99.90
53146;DHT22;39042;53.150;5.898;2023-03-24T18:36:42;9.70;99.90
53146;DHT22;39042;53.150;5.898;2023-03-24T18:39:11;9.70;99.90
53146;DHT22;39042;53.150;5.898;2023-03-24T18:41:38;9.70;99.90
53146;DHT22;39042;53.150;5.898;2023-03-24T18:44:06;9.60;99.90
53146;DHT22;39042;53.150;5.898;2023-03-24T18:46:32;9.60;99.90
53146;DHT22;39042;53.150;5.898;2023-03-24T18:48:58;9.60;99.90
53146;DHT22;39042;53.150;5.898;2023-03-24T18:51:25;9.60;99.90
53146;DHT22;39042;53.150;5.898;2023-03-24T18:53:51;9.60;99.90
53146;DHT22;39042;53.150;5.898;2023-03-24T18:56:18;9.50;99.90
53146;DHT22;39042;53.150;5.898;2023-03-24T18:58:44;9.50;99.90
53146;DHT22;39042;53.150;5.898;2023-03-24T19:01:16;9.50;99.90
53146;DHT22;39042;53.150;5.898;2023-03-24T19:03:48;9.50;99.90
53146;DHT22;39042;53.150;5.898;2023-03-24T19:06:15;9.50;99.90
53146;DHT22;39042;53.150;5.898;2023-03-24T19:08:43;9.40;99.90
53146;DHT22;39042;53.150;5.898;2023-03-24T19:11:10;9.40;99.90
53146;DHT22;39042;53.150;5.898;2023-03-24T19:13:36;9.40;99.90
53146;DHT22;39042;53.150;5.898;2023-03-24T19:16:03;9.40;99.90
53146;DHT22;39042;53.150;5.898;2023-03-24T19:18:29;9.40;99.90
53146;DHT22;39042;53.150;5.898;2023-03-24T19:20:56;9.50;99.90
53146;DHT22;39042;53.150;5.898;2023-03-24T19:23:23;9.50;99.90
53146;DHT22;39042;53.150;5.898;2023-03-24T19:25:50;9.60;99.90
53146;DHT22;39042;53.150;5.898;2023-03-24T19:28:27;9.60;99.90
53146;DHT22;39042;53.150;5.898;2023-03-24T19:30:57;9.60;99.90
53146;DHT22;39042;53.150;5.898;2023-03-24T19:33:27;9.60;99.90
53146;DHT22;39042;53.150;5.898;2023-03-24T19:35:54;9.70;99.90
53146;DHT22;39042;53.150;5.898;2023-03-24T19:38:20;9.80;99.90
53146;DHT22;39042;53.150;5.898;2023-03-24T19:40:49;9.80;99.90
53146;DHT22;39042;53.150;5.898;2023-03-24T19:43:16;9.90;99.90
53146;DHT22;39042;53.150;5.898;2023-03-24T19:45:47;9.90;99.90
53146;DHT22;39042;53.150;5.898;2023-03-24T19:48:13;9.90;99.90
53146;DHT22;39042;53.150;5.898;2023-03-24T19:50:38;10.00;99.90
53146;DHT22;39042;53.150;5.898;2023-03-24T19:53:04;10.00;99.90
53146;DHT22;39042;53.150;5.898;2023-03-24T19:55:30;10.00;99.90
53146;DHT22;39042;53.150;5.898;2023-03-24T19:57:56;10.10;99.90
53146;DHT22;39042;53.150;5.898;2023-03-24T20:00:24;10.10;99.90
53146;DHT22;39042;53.150;5.898;2023-03-24T20:02:50;10.20;99.90
53146;DHT22;39042;53.150;5.898;2023-03-24T20:05:15;10.20;99.90
53146;DHT22;39042;53.150;5.898;2023-03-24T20:07:41;10.20;99.90
53146;DHT22;39042;53.150;5.898;2023-03-24T20:10:07;10.20;99.90
53146;DHT22;39042;53.150;5.898;2023-03-24T20:12:33;10.10;99.90
53146;DHT22;39042;53.150;5.898;2023-03-24T20:14:59;10.10;99.90
53146;DHT22;39042;53.150;5.898;2023-03-24T20:17:25;10.20;99.90
53146;DHT22;39042;53.150;5.898;2023-03-24T20:19:53;10.20;99.90
53146;DHT22;39042;53.150;5.898;2023-03-24T20:22:19;10.10;99.90
53146;DHT22;39042;53.150;5.898;2023-03-24T20:24:45;10.10;99.90
53146;DHT22;39042;53.150;5.898;2023-03-24T20:27:14;10.10;99.90
53146;DHT22;39042;53.150;5.898;2023-03-24T20:29:40;10.10;99.90
53146;DHT22;39042;53.150;5.898;2023-03-24T20:32:07;10.10;99.90
53146;DHT22;39042;53.150;5.898;2023-03-24T20:34:35;10.00;99.90
53146;DHT22;39042;53.150;5.898;2023-03-24T20:37:03;10.00;99.90
53146;DHT22;39042;53.150;5.898;2023-03-24T20:39:29;9.90;99.90
53146;DHT22;39042;53.150;5.898;2023-03-24T20:41:55;9.90;99.90
53146;DHT22;39042;53.150;5.898;2023-03-24T20:44:21;9.90;99.90
53146;DHT22;39042;53.150;5.898;2023-03-24T20:46:47;9.80;99.90
53146;DHT22;39042;53.150;5.898;2023-03-24T20:49:13;9.70;99.90
53146;DHT22;39042;53.150;5.898;2023-03-24T20:51:44;9.60;99.90
53146;DHT22;39042;53.150;5.898;2023-03-24T20:54:10;9.50;99.90
53146;DHT22;39042;53.150;5.898;2023-03-24T20:56:37;9.50;99.90
53146;DHT22;39042;53.150;5.898;2023-03-24T20:59:02;9.50;99.90
53146;DHT22;39042;53.150;5.898;2023-03-24T21:01:32;9.40;99.90
53146;DHT22;39042;53.150;5.898;2023-03-24T21:04:02;9.40;99.90
53146;DHT22;39042;53.150;5.898;2023-03-24T21:06:28;9.30;99.90
53146;DHT22;39042;53.150;5.898;2023-03-24T21:08:54;9.30;99.90
53146;DHT22;39042;53.150;5.898;2023-03-24T21:11:22;9.30;99.90
53146;DHT22;39042;53.150;5.898;2023-03-24T21:13:48;9.30;99.90
53146;DHT22;39042;53.150;5.898;2023-03-24T21:16:14;9.30;99.90
53146;DHT22;39042;53.150;5.898;2023-03-24T21:18:44;9.30;99.90
53146;DHT22;39042;53.150;5.898;2023-03-24T21:21:11;9.40;99.90
53146;DHT22;39042;53.150;5.898;2023-03-24T21:23:38;9.40;99.90
53146;DHT22;39042;53.150;5.898;2023-03-24T21:26:06;9.40;99.90
53146;DHT22;39042;53.150;5.898;2023-03-24T21:28:33;9.50;99.90
53146;DHT22;39042;53.150;5.898;2023-03-24T21:31:07;9.50;99.90
53146;DHT22;39042;53.150;5.898;2023-03-24T21:33:33;9.50;99.90
53146;DHT22;39042;53.150;5.898;2023-03-24T21:36:01;9.50;99.90
53146;DHT22;39042;53.150;5.898;2023-03-24T21:38:27;9.60;99.90
53146;DHT22;39042;53.150;5.898;2023-03-24T21:40:59;9.60;99.90
53146;DHT22;39042;53.150;5.898;2023-03-24T21:43:26;9.60;99.90
53146;DHT22;39042;53.150;5.898;2023-03-24T21:45:54;9.60;99.90
53146;DHT22;39042;53.150;5.898;2023-03-24T21:48:20;9.60;99.90
53146;DHT22;39042;53.150;5.898;2023-03-24T21:50:49;9.60;99.90
53146;DHT22;39042;53.150;5.898;2023-03-24T21:53:15;9.60;99.90
53146;DHT22;39042;53.150;5.898;2023-03-24T21:55:55;9.70;99.90
53146;DHT22;39042;53.150;5.898;2023-03-24T21:58:21;9.70;99.90
53146;DHT22;39042;53.150;5.898;2023-03-24T22:00:48;9.60;99.90
53146;DHT22;39042;53.150;5.898;2023-03-24T22:03:14;9.60;99.90
53146;DHT22;39042;53.150;5.898;2023-03-24T22:05:40;9.60;99.90
53146;DHT22;39042;53.150;5.898;2023-03-24T22:08:07;9.50;99.90
53146;DHT22;39042;53.150;5.898;2023-03-24T22:10:34;9.50;99.90
53146;DHT22;39042;53.150;5.898;2023-03-24T22:13:01;9.50;99.90
53146;DHT22;39042;53.150;5.898;2023-03-24T22:15:28;9.50;99.90
53146;DHT22;39042;53.150;5.898;2023-03-24T22:17:54;9.50;99.90
53146;DHT22;39042;53.150;5.898;2023-03-24T22:20:20;9.50;99.90
53146;DHT22;39042;53.150;5.898;2023-03-24T22:22:46;9.50;99.90
53146;DHT22;39042;53.150;5.898;2023-03-24T22:25:14;9.50;99.90
53146;DHT22;39042;53.150;5.898;2023-03-24T22:27:40;9.50;99.90
53146;DHT22;39042;53.150;5.898;2023-03-24T22:30:08;9.50;99.90
53146;DHT22;39042;53.150;5.898;2023-03-24T22:32:35;9.50;99.90
53146;DHT22;39042;53.150;5.898;2023-03-24T22:35:01;9.50;99.90
53146;DHT22;39042;53.150;5.898;2023-03-24T22:37:28;9.50;99.90
53146;DHT22;39042;53.150;5.898;2023-03-24T22:39:53;9.60;99.90
53146;DHT22;39042;53.150;5.898;2023-03-24T22:42:19;9.50;99.90
53146;DHT22;39042;53.150;5.898;2023-03-24T22:44:45;9.60;99.90
53146;DHT22;39042;53.150;5.898;2023-03-24T22:47:11;9.60;99.90
53146;DHT22;39042;53.150;5.898;2023-03-24T22:49:37;9.60;99.90
53146;DHT22;39042;53.150;5.898;2023-03-24T22:52:03;9.60;99.90
53146;DHT22;39042;53.150;5.898;2023-03-24T22:54:29;9.60;99.90
53146;DHT22;39042;53.150;5.898;2023-03-24T22:56:55;9.60;99.90
53146;DHT22;39042;53.150;5.898;2023-03-24T22:59:20;9.60;99.90
53146;DHT22;39042;53.150;5.898;2023-03-24T23:01:46;9.60;99.90
53146;DHT22;39042;53.150;5.898;2023-03-24T23:04:12;9.60;99.90
53146;DHT22;39042;53.150;5.898;2023-03-24T23:06:38;9.60;99.90
53146;DHT22;39042;53.150;5.898;2023-03-24T23:09:05;9.60;99.90
53146;DHT22;39042;53.150;5.898;2023-03-24T23:11:31;9.60;99.90
53146;DHT22;39042;53.150;5.898;2023-03-24T23:13:58;9.60;99.90
53146;DHT22;39042;53.150;5.898;2023-03-24T23:16:30;9.60;99.90
53146;DHT22;39042;53.150;5.898;2023-03-24T23:18:58;9.60;99.90
53146;DHT22;39042;53.150;5.898;2023-03-24T23:21:25;9.60;99.90
53146;DHT22;39042;53.150;5.898;2023-03-24T23:23:51;9.70;99.90
53146;DHT22;39042;53.150;5.898;2023-03-24T23:26:17;9.70;99.90
53146;DHT22;39042;53.150;5.898;2023-03-24T23:28:44;9.60;99.90
53146;DHT22;39042;53.150;5.898;2023-03-24T23:31:15;9.60;99.90
53146;DHT22;39042;53.150;5.898;2023-03-24T23:33:43;9.60;99.90
53146;DHT22;39042;53.150;5.898;2023-03-24T23:36:10;9.60;99.90
53146;DHT22;39042;53.150;5.898;2023-03-24T23:38:48;9.60;99.90
53146;DHT22;39042;53.150;5.898;2023-03-24T23:41:19;9.60;99.90
53146;DHT22;39042;53.150;5.898;2023-03-24T23:43:49;9.60;99.90
53146;DHT22;39042;53.150;5.898;2023-03-24T23:46:16;9.60;99.90
53146;DHT22;39042;53.150;5.898;2023-03-24T23:48:41;9.60;99.90
53146;DHT22;39042;53.150;5.898;2023-03-24T23:51:07;9.50;99.90
53146;DHT22;39042;53.150;5.898;2023-03-24T23:53:34;9.50;99.90
53146;DHT22;39042;53.150;5.898;2023-03-24T23:56:01;9.50;99.90
53146;DHT22;39042;53.150;5.898;2023-03-24T23:58:33;9.50;99.90
